createdAt,value
2019-05-03T00:03:27.451Z,96222.20
2019-05-03T00:08:22.024Z,96219.33
2019-05-03T00:13:16.618Z,96215.71
2019-05-03T00:18:11.730Z,96212.63
2019-05-03T00:23:06.713Z,96215.00
2019-05-03T00:28:01.842Z,96211.81
2019-05-03T00:32:56.712Z,96213.05
2019-05-03T00:38:12.338Z,96212.48
2019-05-03T00:43:06.872Z,96217.20
2019-05-03T00:48:02.001Z,96206.11
2019-05-03T00:52:56.629Z,96208.62
2019-05-03T00:57:52.143Z,96216.74
2019-05-03T01:02:46.880Z,96209.69
2019-05-03T01:07:42.225Z,96202.67
2019-05-03T01:12:37.056Z,96204.27
2019-05-03T01:17:33.118Z,96203.63
2019-05-03T01:22:27.695Z,96203.41
2019-05-03T01:27:22.462Z,96198.23
2019-05-03T01:32:17.114Z,96200.58
2019-05-03T01:37:11.986Z,96199.58
2019-05-03T01:42:06.701Z,96200.46
2019-05-03T01:47:02.980Z,96203.45
2019-05-03T01:52:12.786Z,96204.81
2019-05-03T01:57:07.516Z,96210.44
2019-05-03T02:02:19.598Z,96213.97
2019-05-03T02:07:14.245Z,96208.06
2019-05-03T02:12:08.923Z,96212.55
2019-05-03T02:17:03.504Z,96212.17
2019-05-03T02:21:58.095Z,96216.84
2019-05-03T02:26:53.002Z,96214.11
2019-05-03T02:31:47.846Z,96216.05
2019-05-03T02:36:42.972Z,96214.09
2019-05-03T02:41:37.674Z,96212.37
2019-05-03T02:46:45.266Z,96211.05
2019-05-03T02:51:38.924Z,96207.69
2019-05-03T02:56:35.733Z,96206.47
2019-05-03T03:01:30.745Z,96208.30
2019-05-03T03:06:28.107Z,96206.83
2019-05-03T03:11:26.201Z,96203.76
2019-05-03T03:16:24.996Z,96201.55
2019-05-03T03:21:26.031Z,96202.58
2019-05-03T03:26:36.439Z,96205.24
2019-05-03T03:31:48.160Z,96204.42
2019-05-03T03:37:03.725Z,96207.58
2019-05-03T03:41:55.574Z,96207.08
2019-05-03T03:46:51.142Z,96214.13
2019-05-03T03:51:51.944Z,96210.17
2019-05-03T03:57:03.885Z,96213.62
2019-05-03T04:01:55.059Z,96218.27
2019-05-03T04:06:56.098Z,96232.19
2019-05-03T04:11:49.747Z,96235.34
2019-05-03T04:17:05.672Z,96237.00
2019-05-03T04:21:59.886Z,96244.50
2019-05-03T04:27:18.753Z,96246.36
2019-05-03T04:32:05.957Z,96246.47
2019-05-03T04:37:00.871Z,96252.67
2019-05-03T04:41:55.991Z,96264.55
2019-05-03T04:46:50.840Z,96272.89
2019-05-03T04:51:46.484Z,96269.41
2019-05-03T04:56:41.485Z,96276.61
2019-05-03T05:01:36.068Z,96273.23
2019-05-03T05:06:30.655Z,96278.07
2019-05-03T05:11:26.347Z,96284.67
2019-05-03T05:16:21.332Z,96288.55
2019-05-03T05:21:17.609Z,96282.97
2019-05-03T05:26:14.459Z,96290.19
2019-05-03T05:31:09.264Z,96297.76
2019-05-03T05:36:04.849Z,96301.94
2019-05-03T05:40:59.593Z,96309.06
2019-05-03T05:45:55.688Z,96307.07
2019-05-03T05:50:51.195Z,96312.31
2019-05-03T05:55:51.197Z,96313.63
2019-05-03T06:00:47.412Z,96319.52
2019-05-03T06:05:42.007Z,96323.26
2019-05-03T06:10:56.031Z,96322.67
2019-05-03T06:15:55.097Z,96322.87
2019-05-03T06:21:07.250Z,96318.27
2019-05-03T06:26:02.295Z,96326.73
2019-05-03T06:31:02.592Z,96335.05
2019-05-03T06:35:57.437Z,96330.27
2019-05-03T06:40:52.109Z,96334.63
2019-05-03T06:45:50.507Z,96337.45
2019-05-03T06:50:45.274Z,96334.10
2019-05-03T06:55:40.087Z,96334.61
2019-05-03T07:00:40.003Z,96332.70
2019-05-03T07:05:54.857Z,96335.39
2019-05-03T07:10:57.013Z,96339.82
2019-05-03T07:15:52.026Z,96339.67
2019-05-03T07:20:48.331Z,96344.73
2019-05-03T07:25:44.797Z,96340.84
2019-05-03T07:30:39.262Z,96349.16
2019-05-03T07:35:35.332Z,96346.89
2019-05-03T07:40:30.971Z,96347.45
2019-05-03T07:45:26.271Z,96353.06
2019-05-03T07:50:21.631Z,96349.91
2019-05-03T07:55:17.849Z,96356.71
2019-05-03T08:00:15.044Z,96358.83
2019-05-03T08:05:09.844Z,96357.64
2019-05-03T08:10:07.114Z,96358.00
2019-05-03T08:15:01.775Z,96361.51
2019-05-03T08:19:56.435Z,96363.81
2019-05-03T08:24:51.059Z,96375.73
2019-05-03T08:29:45.642Z,96377.23
2019-05-03T08:34:42.232Z,96373.64
2019-05-03T08:39:36.948Z,96380.23
2019-05-03T08:44:31.821Z,96382.13
2019-05-03T08:49:26.469Z,96378.44
2019-05-03T08:54:21.052Z,96383.32
2019-05-03T08:59:26.775Z,96382.97
2019-05-03T09:04:12.422Z,96385.75
2019-05-03T09:09:10.554Z,96386.41
2019-05-03T09:14:07.323Z,96376.12
2019-05-03T09:19:01.897Z,96373.78
2019-05-03T09:23:56.697Z,96373.44
2019-05-03T09:28:51.346Z,96370.14
2019-05-03T09:33:46.090Z,96378.13
2019-05-03T09:38:41.022Z,96372.13
2019-05-03T09:43:35.764Z,96373.65
2019-05-03T09:48:30.434Z,96374.45
2019-05-03T09:53:26.695Z,96372.97
2019-05-03T09:58:21.291Z,96369.63
2019-05-03T10:03:16.011Z,96377.71
2019-05-03T10:08:10.587Z,96382.23
2019-05-03T10:13:14.375Z,96378.66
2019-05-03T10:18:01.617Z,96374.89
2019-05-03T10:22:57.925Z,96380.44
2019-05-03T10:27:52.505Z,96383.13
2019-05-03T10:32:48.987Z,96378.11
2019-05-03T10:37:45.348Z,96375.38
2019-05-03T10:42:40.137Z,96372.68
2019-05-03T10:47:35.041Z,96370.53
2019-05-03T10:52:38.358Z,96378.70
2019-05-03T10:57:35.675Z,96375.31
2019-05-03T11:02:45.363Z,96377.25
2019-05-03T11:07:40.144Z,96379.25
2019-05-03T11:12:34.843Z,96370.92
2019-05-03T11:17:31.536Z,96376.92
2019-05-03T11:22:26.138Z,96368.95
2019-05-03T11:27:22.482Z,96367.85
2019-05-03T11:32:35.389Z,96372.30
2019-05-03T11:37:41.170Z,96370.09
2019-05-03T11:42:35.772Z,96366.80
2019-05-03T11:47:30.373Z,96361.96
2019-05-03T11:52:25.795Z,96365.23
2019-05-03T11:57:28.242Z,96362.25
2019-05-03T12:02:28.917Z,96354.34
2019-05-03T12:07:39.085Z,96351.08
2019-05-03T12:12:39.705Z,96354.03
2019-05-03T12:17:36.373Z,96351.06
2019-05-03T12:22:31.727Z,96351.91
2019-05-03T12:27:26.748Z,96341.84
2019-05-03T12:32:21.347Z,96351.62
2019-05-03T12:37:15.956Z,96352.59
2019-05-03T12:42:11.240Z,96347.41
2019-05-03T12:47:06.237Z,96353.68
2019-05-03T12:52:00.823Z,96354.42
2019-05-03T12:56:56.096Z,96350.61
2019-05-03T13:01:55.716Z,96353.27
2019-05-03T13:07:08.496Z,96350.33
2019-05-03T13:12:05.436Z,96348.85
2019-05-03T13:16:59.793Z,96348.39
2019-05-03T13:21:55.596Z,96345.32
2019-05-03T13:26:50.529Z,96330.19
2019-05-03T13:31:58.417Z,96322.52
2019-05-03T13:36:41.431Z,96315.73
2019-05-03T13:41:36.105Z,96309.73
2019-05-03T13:46:30.865Z,96298.06
2019-05-03T13:51:25.548Z,96281.91
2019-05-03T13:56:20.156Z,96277.53
2019-05-03T14:01:14.906Z,96277.14
2019-05-03T14:06:09.674Z,96266.58
2019-05-03T14:11:04.971Z,96263.63
2019-05-03T14:16:05.942Z,96268.63
2019-05-03T14:21:06.022Z,96261.39
2019-05-03T14:26:01.520Z,96252.69
2019-05-03T14:30:56.204Z,96251.91
2019-05-03T14:35:50.815Z,96251.20
2019-05-03T14:40:47.337Z,96251.66
2019-05-03T14:45:42.087Z,96249.02
2019-05-03T14:50:36.741Z,96252.95
2019-05-03T14:55:45.856Z,96255.73
2019-05-03T15:00:42.098Z,96251.72
2019-05-03T15:05:36.770Z,96244.92
2019-05-03T15:10:31.613Z,96242.02
2019-05-03T15:15:29.060Z,96240.75
2019-05-03T15:20:25.513Z,96240.52
2019-05-03T15:25:20.343Z,96225.48
2019-05-03T15:30:15.730Z,96238.14
2019-05-03T15:35:10.596Z,96226.25
2019-05-03T15:40:08.153Z,96228.09
2019-05-03T15:45:14.698Z,96227.31
2019-05-03T15:50:10.607Z,96227.51
2019-05-03T15:55:09.074Z,96224.37
2019-05-03T16:00:05.686Z,96220.14
2019-05-03T16:05:00.319Z,96209.08
2019-05-03T16:09:55.445Z,96199.31
2019-05-03T16:14:52.634Z,96210.34
2019-05-03T16:19:47.837Z,96207.75
2019-05-03T16:24:42.442Z,96214.09
2019-05-03T16:29:37.021Z,96202.47
2019-05-03T16:34:31.640Z,96203.39
2019-05-03T16:39:26.982Z,96203.18
2019-05-03T16:44:22.012Z,96203.77
2019-05-03T16:49:16.593Z,96205.09
2019-05-03T16:54:11.194Z,96198.06
2019-05-03T16:59:05.909Z,96207.77
2019-05-03T17:04:02.185Z,96203.73
2019-05-03T17:09:05.216Z,96201.90
2019-05-03T17:13:59.870Z,96203.36
2019-05-03T17:18:55.167Z,96209.88
2019-05-03T17:23:50.052Z,96206.45
2019-05-03T17:28:44.896Z,96211.20
2019-05-03T17:33:50.719Z,96211.98
2019-05-03T17:38:35.759Z,96213.31
2019-05-03T17:43:32.009Z,96210.34
2019-05-03T17:48:26.613Z,96210.79
2019-05-03T17:53:22.845Z,96213.80
2019-05-03T17:58:28.289Z,96215.30
2019-05-03T18:03:25.781Z,96222.44
2019-05-03T18:08:22.344Z,96221.18
2019-05-03T18:13:16.958Z,96226.53
2019-05-03T18:18:11.619Z,96224.30
2019-05-03T18:23:06.284Z,96214.34
2019-05-03T18:28:00.899Z,96225.08
2019-05-03T18:32:55.505Z,96225.75
2019-05-03T18:37:59.345Z,96225.98
2019-05-03T18:42:55.579Z,96218.06
2019-05-03T18:47:50.171Z,96218.27
2019-05-03T18:52:44.976Z,96239.75
2019-05-03T18:57:39.918Z,96234.21
2019-05-03T19:02:34.519Z,96242.25
2019-05-03T19:07:38.205Z,96235.06
2019-05-03T19:12:32.545Z,96239.72
2019-05-03T19:17:28.867Z,96242.87
2019-05-03T19:22:24.956Z,96250.49
2019-05-03T19:27:19.657Z,96246.81
2019-05-03T19:32:14.976Z,96247.98
2019-05-03T19:37:09.851Z,96244.82
2019-05-03T19:42:04.433Z,96249.55
2019-05-03T19:46:59.035Z,96259.44
2019-05-03T19:51:54.536Z,96249.64
2019-05-03T19:56:49.301Z,96255.66
2019-05-03T20:01:51.388Z,96260.55
2019-05-03T20:06:51.496Z,96256.82
2019-05-03T20:11:46.136Z,96258.77
2019-05-03T20:16:40.763Z,96256.34
2019-05-03T20:21:36.231Z,96253.78
2019-05-03T20:26:30.835Z,96245.30
2019-05-03T20:31:25.431Z,96246.47
2019-05-03T20:36:20.054Z,96252.03
2019-05-03T20:41:14.959Z,96251.55
2019-05-03T20:46:11.345Z,96242.92
2019-05-03T20:51:05.925Z,96244.75
2019-05-03T20:56:00.528Z,96240.14
2019-05-03T21:00:55.208Z,96238.28
2019-05-03T21:05:49.791Z,96241.72
2019-05-03T21:10:44.940Z,96251.78
2019-05-03T21:15:57.217Z,96250.37
2019-05-03T21:20:58.988Z,96251.13
2019-05-03T21:26:13.687Z,96257.54
2019-05-03T21:31:08.298Z,96249.95
2019-05-03T21:36:04.598Z,96243.30
2019-05-03T21:40:59.399Z,96237.73
2019-05-03T21:45:55.627Z,96242.29
2019-05-03T21:50:50.213Z,96238.69
2019-05-03T21:55:44.942Z,96245.34
2019-05-03T22:00:46.956Z,96242.05
2019-05-03T22:05:52.765Z,96250.83
2019-05-03T22:10:37.859Z,96253.09
2019-05-03T22:15:36.758Z,96252.77
2019-05-03T22:20:34.921Z,96246.22
2019-05-03T22:25:30.976Z,96247.13
2019-05-03T22:30:26.865Z,96242.38
2019-05-03T22:35:21.720Z,96245.37
2019-05-03T22:40:16.302Z,96237.23
2019-05-03T22:45:12.634Z,96239.41
2019-05-03T22:50:07.367Z,96240.30
2019-05-03T22:55:01.951Z,96239.69
2019-05-03T22:59:56.610Z,96232.88
2019-05-03T23:04:51.206Z,96233.55
2019-05-03T23:09:45.784Z,96221.83
2019-05-03T23:14:40.391Z,96213.63
2019-05-03T23:19:36.625Z,96214.55
2019-05-03T23:24:31.223Z,96203.59
2019-05-03T23:29:25.800Z,96200.66
2019-05-03T23:34:20.390Z,96189.62
2019-05-03T23:39:14.998Z,96190.53
2019-05-03T23:44:09.578Z,96178.86
2019-05-03T23:49:04.223Z,96177.19
2019-05-03T23:53:58.820Z,96167.46
2019-05-03T23:58:55.031Z,96151.47
